createdAt,value
2023-09-23T00:02:41.366Z,21.14
2023-09-23T00:05:44.576Z,21.12
2023-09-23T00:08:46.592Z,21.06
2023-09-23T00:11:48.528Z,21.05
2023-09-23T00:14:50.195Z,21.08
2023-09-23T00:17:53.488Z,21.13
2023-09-23T00:20:55.281Z,20.99
2023-09-23T00:23:56.942Z,21.01
2023-09-23T00:26:58.641Z,20.98
2023-09-23T00:30:00.261Z,20.93
2023-09-23T00:33:03.581Z,20.90
2023-09-23T00:36:05.930Z,20.85
2023-09-23T00:39:07.607Z,20.73
2023-09-23T00:42:09.651Z,20.81
2023-09-23T00:45:11.441Z,20.90
2023-09-23T00:48:15.921Z,20.93
2023-09-23T00:51:18.339Z,20.86
2023-09-23T00:54:20.072Z,20.94
2023-09-23T00:57:21.825Z,20.91
2023-09-23T01:00:23.515Z,20.85
2023-09-23T01:03:26.686Z,20.82
2023-09-23T01:06:28.212Z,20.87
2023-09-23T01:09:29.922Z,20.86
2023-09-23T01:12:31.746Z,20.85
2023-09-23T01:15:33.646Z,20.87
2023-09-23T01:18:36.679Z,20.83
2023-09-23T01:21:38.370Z,20.79
2023-09-23T01:24:41.431Z,20.86
2023-09-23T01:27:43.082Z,20.91
2023-09-23T01:30:44.772Z,20.95
2023-09-23T01:33:46.440Z,21.00
2023-09-23T01:36:48.084Z,20.98
2023-09-23T01:39:51.180Z,20.99
2023-09-23T01:42:52.862Z,21.04
2023-09-23T01:45:54.509Z,21.04
2023-09-23T01:48:56.157Z,21.08
2023-09-23T01:51:57.813Z,21.00
2023-09-23T01:55:00.853Z,21.05
2023-09-23T01:58:02.566Z,21.06
2023-09-23T02:01:04.330Z,21.14
2023-09-23T02:04:06.095Z,21.13
2023-09-23T02:07:08.142Z,21.18
2023-09-23T02:10:11.285Z,21.21
2023-09-23T02:13:12.992Z,21.18
2023-09-23T02:16:14.699Z,21.21
2023-09-23T02:19:16.386Z,21.24
2023-09-23T02:22:18.126Z,21.21
2023-09-23T02:25:21.320Z,21.15
2023-09-23T02:28:22.777Z,21.17
2023-09-23T02:31:24.486Z,21.15
2023-09-23T02:34:26.189Z,21.21
2023-09-23T02:37:27.858Z,21.20
2023-09-23T02:40:30.912Z,21.22
2023-09-23T02:43:32.587Z,21.24
2023-09-23T02:46:34.317Z,21.24
2023-09-23T02:49:36.023Z,21.17
2023-09-23T02:52:38.626Z,21.14
2023-09-23T02:55:41.774Z,21.18
2023-09-23T02:58:43.621Z,21.13
2023-09-23T03:01:45.401Z,21.22
2023-09-23T03:04:47.215Z,21.29
2023-09-23T03:07:49.021Z,21.26
2023-09-23T03:10:52.063Z,21.32
2023-09-23T03:13:53.814Z,21.42
2023-09-23T03:16:55.697Z,21.46
2023-09-23T03:19:57.429Z,21.48
2023-09-23T03:22:59.141Z,21.54
2023-09-23T03:26:02.248Z,21.61
2023-09-23T03:29:04.013Z,21.58
2023-09-23T03:32:05.807Z,21.55
2023-09-23T03:35:08.089Z,21.49
2023-09-23T03:38:09.777Z,21.34
2023-09-23T03:41:13.127Z,21.28
2023-09-23T03:44:15.534Z,21.20
2023-09-23T03:47:17.452Z,21.21
2023-09-23T03:50:19.217Z,21.24
2023-09-23T03:53:21.419Z,21.32
2023-09-23T03:56:24.596Z,21.38
2023-09-23T03:59:26.435Z,21.31
2023-09-23T04:02:28.252Z,21.40
2023-09-23T04:05:32.293Z,21.44
2023-09-23T04:08:34.104Z,21.51
2023-09-23T04:11:37.114Z,21.50
2023-09-23T04:14:38.793Z,21.54
2023-09-23T04:17:40.523Z,21.51
2023-09-23T04:20:42.239Z,21.48
2023-09-23T04:23:43.920Z,21.40
2023-09-23T04:26:47.269Z,21.40
2023-09-23T04:29:48.973Z,21.34
2023-09-23T04:32:50.813Z,21.30
2023-09-23T04:35:52.538Z,21.24
2023-09-23T04:38:54.241Z,21.16
2023-09-23T04:41:57.319Z,21.12
2023-09-23T04:44:58.989Z,21.00
2023-09-23T04:48:00.691Z,20.97
2023-09-23T04:51:02.351Z,20.94
2023-09-23T04:54:04.309Z,21.17
2023-09-23T04:57:07.351Z,21.24
2023-09-23T05:00:09.927Z,21.22
2023-09-23T05:03:11.670Z,21.18
2023-09-23T05:06:13.377Z,21.17
2023-09-23T05:09:15.082Z,21.11
2023-09-23T05:12:18.198Z,20.92
2023-09-23T05:15:19.926Z,20.89
2023-09-23T05:18:21.599Z,20.96
2023-09-23T05:21:23.270Z,21.03
2023-09-23T05:24:24.968Z,20.99
2023-09-23T05:27:27.972Z,21.08
2023-09-23T05:30:29.636Z,21.10
2023-09-23T05:33:31.338Z,21.10
2023-09-23T05:36:33.037Z,21.20
2023-09-23T05:39:34.723Z,21.16
2023-09-23T05:42:37.822Z,21.14
2023-09-23T05:45:39.470Z,21.18
2023-09-23T05:48:41.147Z,21.08
2023-09-23T05:51:42.841Z,21.04
2023-09-23T05:54:44.483Z,20.97
2023-09-23T05:57:47.533Z,21.17
2023-09-23T06:00:49.169Z,21.00
2023-09-23T06:03:50.940Z,21.04
2023-09-23T06:06:52.673Z,20.96
2023-09-23T06:09:54.354Z,20.97
2023-09-23T06:12:57.401Z,20.88
2023-09-23T06:16:02.638Z,20.95
2023-09-23T06:19:04.375Z,21.17
2023-09-23T06:22:06.071Z,21.28
2023-09-23T06:25:08.463Z,21.36
2023-09-23T06:28:11.560Z,21.50
2023-09-23T06:31:13.204Z,21.53
2023-09-23T06:34:14.880Z,21.50
2023-09-23T06:37:16.568Z,21.52
2023-09-23T06:40:18.268Z,21.49
2023-09-23T06:43:21.267Z,21.32
2023-09-23T06:46:23.332Z,21.24
2023-09-23T06:49:24.991Z,21.30
2023-09-23T06:52:26.653Z,21.21
2023-09-23T06:55:28.327Z,21.36
2023-09-23T06:58:31.405Z,21.47
2023-09-23T07:01:33.197Z,21.48
2023-09-23T07:04:35.044Z,21.43
2023-09-23T07:07:36.772Z,21.44
2023-09-23T07:10:39.900Z,21.42
2023-09-23T07:13:42.964Z,21.31
2023-09-23T07:16:44.624Z,21.22
2023-09-23T07:19:47.193Z,21.23
2023-09-23T07:22:49.017Z,21.09
2023-09-23T07:25:51.650Z,21.22
2023-09-23T07:28:54.818Z,21.29
2023-09-23T07:31:56.826Z,21.39
2023-09-23T07:34:58.642Z,21.51
2023-09-23T07:38:00.686Z,21.64
2023-09-23T07:41:02.435Z,21.61
2023-09-23T07:44:05.975Z,21.58
2023-09-23T07:47:07.721Z,21.46
2023-09-23T07:50:10.146Z,21.54
2023-09-23T07:53:11.858Z,21.46
2023-09-23T07:56:13.621Z,21.41
2023-09-23T07:59:16.769Z,21.24
2023-09-23T08:02:18.542Z,21.30
2023-09-23T08:05:20.441Z,21.17
2023-09-23T08:08:22.228Z,21.07
2023-09-23T08:11:24.033Z,21.23
2023-09-23T08:14:27.223Z,21.21
2023-09-23T08:17:29.067Z,21.40
2023-09-23T08:20:30.931Z,21.42
2023-09-23T08:23:32.829Z,21.15
2023-09-23T08:26:34.597Z,21.13
2023-09-23T08:29:37.657Z,20.86
2023-09-23T08:32:39.759Z,20.91
2023-09-23T08:35:41.532Z,20.84
2023-09-23T08:38:43.240Z,20.71
2023-09-23T08:41:50.744Z,20.86
2023-09-23T08:44:54.670Z,20.68
2023-09-23T08:47:58.020Z,20.97
2023-09-23T08:51:01.490Z,20.64
2023-09-23T08:54:06.601Z,20.72
2023-09-23T08:57:09.343Z,20.60
2023-09-23T09:00:13.797Z,20.65
2023-09-23T09:03:15.586Z,20.66
2023-09-23T09:06:17.420Z,20.78
2023-09-23T09:09:19.432Z,20.69
2023-09-23T09:12:21.600Z,20.78
2023-09-23T09:15:24.668Z,20.93
2023-09-23T09:18:26.335Z,20.98
2023-09-23T09:21:27.988Z,21.11
2023-09-23T09:24:30.996Z,21.33
2023-09-23T09:27:32.662Z,21.51
2023-09-23T09:30:36.016Z,21.39
2023-09-23T09:33:38.758Z,21.72
2023-09-23T09:36:40.813Z,21.51
2023-09-23T09:39:50.257Z,21.64
2023-09-23T09:42:53.400Z,21.53
2023-09-23T09:45:58.616Z,21.52
2023-09-23T09:49:01.959Z,21.48
2023-09-23T09:52:05.889Z,21.62
2023-09-23T09:55:08.639Z,21.94
2023-09-23T09:58:10.470Z,22.55
2023-09-23T10:01:13.731Z,22.42
2023-09-23T10:04:19.240Z,22.33
2023-09-23T10:07:21.168Z,22.59
2023-09-23T10:10:31.794Z,22.50
2023-09-23T10:13:33.462Z,22.76
2023-09-23T10:16:36.562Z,22.86
2023-09-23T10:19:39.676Z,23.17
2023-09-23T10:22:51.741Z,23.30
2023-09-23T10:25:53.738Z,23.45
2023-09-23T10:28:58.905Z,23.53
2023-09-23T10:32:10.975Z,23.53
2023-09-23T10:35:12.711Z,23.49
2023-09-23T10:38:21.640Z,23.59
2023-09-23T10:41:32.219Z,23.69
2023-09-23T10:44:34.003Z,23.73
2023-09-23T10:47:37.614Z,24.07
2023-09-23T10:50:39.521Z,24.17
2023-09-23T10:53:41.736Z,24.00
2023-09-23T10:56:43.379Z,23.87
2023-09-23T10:59:45.231Z,23.93
2023-09-23T11:02:53.637Z,24.25
2023-09-23T11:05:55.885Z,24.11
2023-09-23T11:08:57.562Z,24.04
2023-09-23T11:12:07.210Z,23.87
2023-09-23T11:15:09.506Z,23.81
2023-09-23T11:18:14.685Z,23.59
2023-09-23T11:21:16.427Z,23.34
2023-09-23T11:24:18.142Z,23.35
2023-09-23T11:27:19.854Z,23.51
2023-09-23T11:30:21.556Z,23.50
2023-09-23T11:33:24.883Z,23.51
2023-09-23T11:36:26.644Z,23.55
2023-09-23T11:39:32.216Z,23.43
2023-09-23T11:42:33.921Z,23.61
2023-09-23T11:45:35.635Z,23.57
2023-09-23T11:48:43.383Z,23.82
2023-09-23T11:51:46.458Z,24.10
2023-09-23T11:54:47.933Z,24.27
2023-09-23T11:57:49.878Z,24.43
2023-09-23T12:00:51.588Z,24.32
2023-09-23T12:03:53.465Z,24.22
2023-09-23T12:06:56.674Z,24.31
2023-09-23T12:09:58.340Z,24.29
2023-09-23T12:13:00.020Z,24.37
2023-09-23T12:16:01.670Z,24.40
2023-09-23T12:19:03.570Z,24.46
2023-09-23T12:22:06.637Z,24.35
2023-09-23T12:25:08.379Z,24.33
2023-09-23T12:28:10.103Z,24.27
2023-09-23T12:31:11.861Z,24.04
2023-09-23T12:34:13.577Z,24.05
2023-09-23T12:37:16.628Z,24.03
2023-09-23T12:40:18.246Z,23.83
2023-09-23T12:43:19.928Z,23.84
2023-09-23T12:46:21.659Z,23.75
2023-09-23T12:49:23.317Z,23.69
2023-09-23T12:52:26.333Z,23.54
2023-09-23T12:55:28.033Z,23.49
2023-09-23T12:58:29.728Z,23.49
2023-09-23T13:01:31.459Z,23.38
2023-09-23T13:04:33.154Z,23.37
2023-09-23T13:07:36.312Z,23.34
2023-09-23T13:10:37.903Z,23.32
2023-09-23T13:13:39.602Z,23.22
2023-09-23T13:16:42.058Z,23.13
2023-09-23T13:19:45.257Z,23.23
2023-09-23T13:22:48.657Z,23.16
2023-09-23T13:25:50.662Z,23.04
2023-09-23T13:28:52.916Z,22.95
2023-09-23T13:31:54.643Z,22.88
2023-09-23T13:34:56.808Z,22.75
2023-09-23T13:38:00.355Z,22.37
2023-09-23T13:41:03.417Z,22.39
2023-09-23T13:44:05.787Z,22.13
2023-09-23T13:47:07.620Z,21.85
2023-09-23T13:50:09.802Z,21.60
2023-09-23T13:53:13.632Z,21.56
2023-09-23T13:56:16.144Z,21.49
2023-09-23T13:59:17.888Z,21.40
2023-09-23T14:02:20.124Z,21.31
2023-09-23T14:05:22.790Z,21.24
2023-09-23T14:08:25.950Z,21.24
2023-09-23T14:11:28.208Z,21.21
2023-09-23T14:14:30.430Z,21.13
2023-09-23T14:17:32.731Z,21.14
2023-09-23T14:20:35.733Z,21.03
2023-09-23T14:23:38.890Z,20.93
2023-09-23T14:26:41.081Z,20.86
2023-09-23T14:29:43.761Z,20.84
2023-09-23T14:32:45.552Z,20.73
2023-09-23T14:35:48.137Z,20.69
2023-09-23T14:38:51.925Z,20.64
2023-09-23T14:41:54.667Z,20.72
2023-09-23T14:44:56.819Z,20.64
2023-09-23T14:47:59.061Z,20.54
2023-09-23T14:51:02.130Z,20.53
2023-09-23T14:54:05.621Z,20.45
2023-09-23T14:57:07.788Z,20.33
2023-09-23T15:00:10.238Z,20.29
2023-09-23T15:03:12.546Z,20.21
2023-09-23T15:06:15.281Z,20.40
2023-09-23T15:09:19.596Z,20.41
2023-09-23T15:12:21.290Z,20.37
2023-09-23T15:15:23.441Z,20.33
2023-09-23T15:18:26.354Z,20.18
2023-09-23T15:21:29.081Z,20.01
2023-09-23T15:24:32.797Z,19.96
2023-09-23T15:27:35.380Z,20.04
2023-09-23T15:30:38.036Z,19.97
2023-09-23T15:33:40.709Z,19.96
2023-09-23T15:36:43.019Z,19.89
2023-09-23T15:39:47.396Z,19.90
2023-09-23T15:42:51.450Z,19.57
2023-09-23T15:45:59.874Z,19.59
2023-09-23T15:49:02.356Z,19.52
2023-09-23T15:52:04.881Z,19.42
2023-09-23T15:55:08.419Z,19.36
2023-09-23T15:58:10.963Z,19.28
2023-09-23T16:01:12.868Z,19.37
2023-09-23T16:04:14.831Z,19.34
2023-09-23T16:07:17.535Z,19.30
2023-09-23T16:10:21.253Z,19.31
2023-09-23T16:13:23.770Z,19.38
2023-09-23T16:16:26.542Z,19.44
2023-09-23T16:19:28.833Z,19.36
2023-09-23T16:22:31.419Z,19.35
2023-09-23T16:25:34.999Z,19.33
2023-09-23T16:28:36.693Z,19.37
2023-09-23T16:31:38.836Z,19.32
2023-09-23T16:34:41.078Z,19.27
2023-09-23T16:37:43.772Z,19.32
2023-09-23T16:40:47.876Z,19.38
2023-09-23T16:43:50.051Z,19.38
2023-09-23T16:46:52.814Z,19.42
2023-09-23T16:49:55.735Z,19.17
2023-09-23T16:52:57.886Z,19.25
2023-09-23T16:56:00.946Z,19.21
2023-09-23T16:59:03.662Z,19.22
2023-09-23T17:02:05.935Z,19.18
2023-09-23T17:05:08.600Z,19.20
2023-09-23T17:08:11.468Z,19.15
2023-09-23T17:11:15.212Z,19.20
2023-09-23T17:14:17.573Z,19.24
2023-09-23T17:17:22.175Z,19.22
2023-09-23T17:20:25.247Z,19.14
2023-09-23T17:23:27.887Z,19.06
2023-09-23T17:26:32.749Z,18.93
2023-09-23T17:29:35.380Z,18.86
2023-09-23T17:32:37.227Z,18.86
2023-09-23T17:35:39.546Z,18.86
2023-09-23T17:38:42.090Z,18.79
2023-09-23T17:41:46.253Z,18.68
2023-09-23T17:44:48.923Z,18.45
2023-09-23T17:47:51.980Z,18.35
2023-09-23T17:50:56.508Z,18.40
2023-09-23T17:54:00.039Z,18.41
2023-09-23T17:57:04.606Z,18.52
2023-09-23T18:00:08.793Z,18.46
2023-09-23T18:03:11.292Z,18.44
2023-09-23T18:06:13.201Z,18.52
2023-09-23T18:09:16.026Z,18.39
2023-09-23T18:12:19.213Z,18.36
2023-09-23T18:15:21.982Z,18.34
2023-09-23T18:18:24.456Z,18.43
2023-09-23T18:21:26.646Z,18.37
2023-09-23T18:24:29.629Z,18.33
2023-09-23T18:27:37.938Z,18.39
2023-09-23T18:30:41.046Z,18.41
2023-09-23T18:33:43.581Z,18.49
2023-09-23T18:36:46.313Z,18.46
2023-09-23T18:39:51.008Z,18.43
2023-09-23T18:42:56.272Z,18.37
2023-09-23T18:45:59.138Z,18.39
2023-09-23T18:49:01.784Z,18.53
2023-09-23T18:52:04.801Z,18.64
2023-09-23T18:55:08.177Z,18.74
2023-09-23T18:58:12.364Z,18.49
2023-09-23T19:01:15.363Z,18.50
2023-09-23T19:04:17.644Z,18.41
2023-09-23T19:07:20.793Z,18.36
2023-09-23T19:10:24.043Z,18.48
2023-09-23T19:13:27.639Z,18.37
2023-09-23T19:16:30.952Z,18.49
2023-09-23T19:19:33.425Z,18.56
2023-09-23T19:22:35.573Z,18.71
2023-09-23T19:25:37.724Z,18.77
2023-09-23T19:28:42.010Z,18.87
2023-09-23T19:31:44.493Z,18.85
2023-09-23T19:34:47.115Z,18.86
2023-09-23T19:37:51.485Z,18.88
2023-09-23T19:40:53.590Z,18.77
2023-09-23T19:43:58.484Z,18.65
2023-09-23T19:47:00.982Z,18.54
2023-09-23T19:50:04.135Z,18.53
2023-09-23T19:53:07.442Z,18.56
2023-09-23T19:56:09.515Z,18.60
2023-09-23T19:59:13.901Z,18.66
2023-09-23T20:02:16.618Z,18.69
2023-09-23T20:05:19.848Z,18.61
2023-09-23T20:08:22.058Z,18.61
2023-09-23T20:11:24.252Z,18.53
2023-09-23T20:14:28.746Z,18.40
2023-09-23T20:17:31.491Z,18.44
2023-09-23T20:20:34.408Z,18.49
2023-09-23T20:23:37.103Z,18.52
2023-09-23T20:26:39.894Z,18.51
2023-09-23T20:29:59.790Z,18.53
2023-09-23T20:33:08.129Z,18.35
2023-09-23T20:36:10.409Z,18.40
2023-09-23T20:39:12.970Z,18.41
2023-09-23T20:42:14.990Z,18.50
2023-09-23T20:45:19.531Z,18.52
2023-09-23T20:48:21.789Z,18.47
2023-09-23T20:51:23.963Z,18.44
2023-09-23T20:54:26.136Z,18.27
2023-09-23T20:57:27.859Z,18.30
2023-09-23T21:00:31.114Z,18.22
2023-09-23T21:03:32.911Z,18.27
2023-09-23T21:06:34.813Z,18.23
2023-09-23T21:09:36.601Z,18.18
2023-09-23T21:12:38.312Z,18.20
2023-09-23T21:15:41.432Z,18.08
2023-09-23T21:18:43.237Z,18.08
2023-09-23T21:21:44.847Z,17.96
2023-09-23T21:24:46.473Z,18.05
2023-09-23T21:27:48.127Z,17.93
2023-09-23T21:30:51.686Z,17.90
2023-09-23T21:33:53.363Z,17.97
2023-09-23T21:36:55.043Z,17.97
2023-09-23T21:39:56.690Z,17.99
2023-09-23T21:42:58.505Z,18.00
2023-09-23T21:46:01.630Z,18.05
2023-09-23T21:49:03.364Z,18.08
2023-09-23T21:52:05.040Z,18.08
2023-09-23T21:55:07.212Z,18.01
2023-09-23T21:58:08.910Z,18.04
2023-09-23T22:01:11.995Z,18.06
2023-09-23T22:04:13.840Z,18.12
2023-09-23T22:07:15.685Z,18.07
2023-09-23T22:10:17.406Z,18.15
2023-09-23T22:13:19.070Z,18.09
2023-09-23T22:16:22.167Z,18.13
2023-09-23T22:19:23.941Z,18.13
2023-09-23T22:22:25.702Z,18.25
2023-09-23T22:25:27.392Z,18.27
2023-09-23T22:28:29.048Z,18.34
2023-09-23T22:31:32.173Z,18.25
2023-09-23T22:34:33.925Z,18.29
2023-09-23T22:37:35.605Z,18.21
2023-09-23T22:40:37.316Z,18.24
2023-09-23T22:43:38.933Z,18.20
2023-09-23T22:46:42.042Z,18.31
2023-09-23T22:49:43.860Z,18.34
2023-09-23T22:52:45.562Z,18.33
2023-09-23T22:55:47.258Z,18.32
2023-09-23T22:58:48.992Z,18.37
2023-09-23T23:01:52.164Z,18.39
2023-09-23T23:04:53.847Z,18.20
2023-09-23T23:07:55.545Z,18.20
2023-09-23T23:10:57.243Z,18.23
2023-09-23T23:13:58.898Z,18.27
2023-09-23T23:17:01.955Z,18.21
2023-09-23T23:20:04.352Z,18.18
2023-09-23T23:23:06.131Z,18.16
2023-09-23T23:26:08.286Z,18.06
2023-09-23T23:29:09.983Z,18.10
2023-09-23T23:32:13.075Z,18.07
2023-09-23T23:35:15.047Z,17.97
2023-09-23T23:38:16.650Z,18.02
2023-09-23T23:41:18.346Z,18.08
2023-09-23T23:44:20.089Z,18.12
2023-09-23T23:47:23.297Z,18.20
2023-09-23T23:50:25.120Z,18.16
2023-09-23T23:53:27.074Z,18.06
2023-09-23T23:56:28.828Z,18.12
2023-09-23T23:59:30.613Z,18.08
